Etusivu
METAR-TAF:

METAR-TAF

Lentoasemat :

Kristiansund, Norja

Leveyspiiri: 63-07N, Pituuspiiri: 007-50E, korkeus merenpinnasta: 6 m

Tämänhetkinen sää

Tämä raportti tehtiin 1 tunti ja 8 minuuttia sitten, kello 03.50 UTC
Tuuli 2 kn eri suunnista
Lämpötila 7°C
Kosteus 93%
Ilmanpaine 1016 hPa
Näkyvyys: 3400 m
Hajonneita pilviä 300 ft:n korkeudessa
utua

METAR: ENKB 230350Z VRB02KT 3400 BR BKN003 07/06 Q1016 RMK WIND 745FT 13005KT

Aika: 06:58 (04:58 UTC)

Sääennuste

Tämä raportti tehtiin 2 tuntia ja 58 minuuttia sitten, kello 02.00 UTC
Ennuste voimassa 23. päivästä klo 04 UTC - 23. päivään klo 12 UTC
Tuuli 5 kn eri suunnista
Näkyvyys 10 km tai enemmän
Muutamia pilviä 500 ft:n korkeudessa
Hajanaisia pilviä 2000 ft:n korkeudessa
Todennäköisyys 30%
23. päivästä klo 04 UTC - 23. päivään klo 06 UTC
Näkyvyys: 2000 m
Hajonneita pilviä 300 ft:n korkeudessa
utua

TAF: ENKB 230200Z 2304/2312 VRB05KT 9999 FEW005 SCT020 PROB30 2304/2306 2000 BR BKN003

Säähavainnot ja -ennusteet yli 4000 lentoasemalta (METAR- ja TAF-raportit).

Käytössä olevat sääasemat on merkitty karttaan keltaisilla ja punaisilla pisteillä.

Aseta hiiri pisteen päälle nähdäksesi sääaseman nimen.

Klikkaa sitten nähdäksesi säähavainnot ja -ennusteet.

Kartan vaihtaminen: klikkaa mustalla rastilla varustettuja vihreitä pisteitä, niin voit zoomata sisään; viivalla varustettua vihreää pistettä, niin voit zoomata ulos tai vihreitä nuolia, niin pääset viereisille kartoille.


METAR-TAF: